sensor_id;sensor_type;location;lat;lon;timestamp;P1;durP1;ratioP1;P2;durP2;ratioP2
10132;SDS011;5106;50.926;7.080;2022-10-18T00:01:34;5.93;;;3.92;;
10132;SDS011;5106;50.926;7.080;2022-10-18T00:03:59;5.47;;;4.13;;
10132;SDS011;5106;50.926;7.080;2022-10-18T00:06:25;4.93;;;3.90;;
10132;SDS011;5106;50.926;7.080;2022-10-18T00:08:50;5.38;;;3.75;;
10132;SDS011;5106;50.926;7.080;2022-10-18T00:11:16;7.55;;;4.05;;
10132;SDS011;5106;50.926;7.080;2022-10-18T00:13:42;5.88;;;4.10;;
10132;SDS011;5106;50.926;7.080;2022-10-18T00:16:10;6.07;;;4.45;;
10132;SDS011;5106;50.926;7.080;2022-10-18T00:18:37;6.25;;;4.15;;
10132;SDS011;5106;50.926;7.080;2022-10-18T00:21:04;7.35;;;3.97;;
10132;SDS011;5106;50.926;7.080;2022-10-18T00:23:32;7.93;;;4.22;;
10132;SDS011;5106;50.926;7.080;2022-10-18T00:26:03;5.68;;;4.05;;
10132;SDS011;5106;50.926;7.080;2022-10-18T00:28:45;6.22;;;4.03;;
10132;SDS011;5106;50.926;7.080;2022-10-18T00:31:18;6.57;;;4.45;;
10132;SDS011;5106;50.926;7.080;2022-10-18T00:33:45;6.80;;;4.10;;
10132;SDS011;5106;50.926;7.080;2022-10-18T00:36:12;6.97;;;4.07;;
10132;SDS011;5106;50.926;7.080;2022-10-18T00:38:38;6.50;;;4.20;;
10132;SDS011;5106;50.926;7.080;2022-10-18T00:41:05;6.78;;;4.18;;
10132;SDS011;5106;50.926;7.080;2022-10-18T00:43:48;6.75;;;3.72;;
10132;SDS011;5106;50.926;7.080;2022-10-18T00:46:17;4.93;;;3.97;;
10132;SDS011;5106;50.926;7.080;2022-10-18T00:48:42;6.82;;;4.68;;
10132;SDS011;5106;50.926;7.080;2022-10-18T00:51:08;5.35;;;4.05;;
10132;SDS011;5106;50.926;7.080;2022-10-18T00:53:34;6.53;;;4.10;;
10132;SDS011;5106;50.926;7.080;2022-10-18T00:56:00;6.63;;;4.03;;
10132;SDS011;5106;50.926;7.080;2022-10-18T00:58:26;5.75;;;4.30;;
10132;SDS011;5106;50.926;7.080;2022-10-18T01:00:52;5.40;;;4.13;;
10132;SDS011;5106;50.926;7.080;2022-10-18T01:03:18;5.68;;;4.38;;
10132;SDS011;5106;50.926;7.080;2022-10-18T01:05:44;7.22;;;4.57;;
10132;SDS011;5106;50.926;7.080;2022-10-18T01:13:36;6.18;;;4.60;;
10132;SDS011;5106;50.926;7.080;2022-10-18T01:16:25;6.50;;;4.70;;
10132;SDS011;5106;50.926;7.080;2022-10-18T01:21:56;5.50;;;4.45;;
10132;SDS011;5106;50.926;7.080;2022-10-18T01:32:53;6.50;;;4.53;;
10132;SDS011;5106;50.926;7.080;2022-10-18T01:35:16;7.20;;;4.32;;
10132;SDS011;5106;50.926;7.080;2022-10-18T01:37:48;6.70;;;4.38;;
10132;SDS011;5106;50.926;7.080;2022-10-18T01:40:17;6.45;;;4.78;;
10132;SDS011;5106;50.926;7.080;2022-10-18T01:42:45;5.97;;;4.72;;
10132;SDS011;5106;50.926;7.080;2022-10-18T01:45:13;7.43;;;3.97;;
10132;SDS011;5106;50.926;7.080;2022-10-18T01:47:41;6.20;;;4.93;;
10132;SDS011;5106;50.926;7.080;2022-10-18T01:50:09;6.75;;;5.85;;
10132;SDS011;5106;50.926;7.080;2022-10-18T01:52:45;6.88;;;5.50;;
10132;SDS011;5106;50.926;7.080;2022-10-18T01:55:14;7.93;;;5.15;;
10132;SDS011;5106;50.926;7.080;2022-10-18T01:57:43;7.00;;;5.20;;
10132;SDS011;5106;50.926;7.080;2022-10-18T02:00:23;6.45;;;5.28;;
10132;SDS011;5106;50.926;7.080;2022-10-18T02:02:59;7.75;;;5.50;;
10132;SDS011;5106;50.926;7.080;2022-10-18T02:06:34;9.90;;;5.35;;
10132;SDS011;5106;50.926;7.080;2022-10-18T02:08:42;7.72;;;5.20;;
10132;SDS011;5106;50.926;7.080;2022-10-18T02:11:16;8.82;;;5.30;;
10132;SDS011;5106;50.926;7.080;2022-10-18T02:13:52;9.20;;;5.80;;
10132;SDS011;5106;50.926;7.080;2022-10-18T02:16:25;12.73;;;6.10;;
10132;SDS011;5106;50.926;7.080;2022-10-18T02:18:57;12.73;;;5.85;;
10132;SDS011;5106;50.926;7.080;2022-10-18T02:21:25;9.70;;;5.13;;
10132;SDS011;5106;50.926;7.080;2022-10-18T02:23:53;9.55;;;6.05;;
10132;SDS011;5106;50.926;7.080;2022-10-18T02:26:20;10.75;;;5.90;;
10132;SDS011;5106;50.926;7.080;2022-10-18T02:28:46;9.80;;;5.80;;
10132;SDS011;5106;50.926;7.080;2022-10-18T02:31:35;10.25;;;6.30;;
10132;SDS011;5106;50.926;7.080;2022-10-18T02:34:03;7.03;;;5.57;;
10132;SDS011;5106;50.926;7.080;2022-10-18T02:36:50;9.50;;;5.53;;
10132;SDS011;5106;50.926;7.080;2022-10-18T02:39:18;7.80;;;5.45;;
10132;SDS011;5106;50.926;7.080;2022-10-18T02:41:47;7.18;;;6.00;;
10132;SDS011;5106;50.926;7.080;2022-10-18T02:44:13;8.15;;;5.68;;
10132;SDS011;5106;50.926;7.080;2022-10-18T02:46:38;8.60;;;6.38;;
10132;SDS011;5106;50.926;7.080;2022-10-18T02:49:05;6.85;;;6.15;;
10132;SDS011;5106;50.926;7.080;2022-10-18T02:51:31;7.47;;;6.57;;
10132;SDS011;5106;50.926;7.080;2022-10-18T02:53:56;8.45;;;6.43;;
10132;SDS011;5106;50.926;7.080;2022-10-18T02:56:22;10.60;;;6.68;;
10132;SDS011;5106;50.926;7.080;2022-10-18T02:58:47;9.00;;;7.30;;
10132;SDS011;5106;50.926;7.080;2022-10-18T03:01:13;11.65;;;7.78;;
10132;SDS011;5106;50.926;7.080;2022-10-18T03:03:39;9.80;;;7.15;;
10132;SDS011;5106;50.926;7.080;2022-10-18T03:06:04;11.18;;;7.28;;
10132;SDS011;5106;50.926;7.080;2022-10-18T03:08:30;9.93;;;7.47;;
10132;SDS011;5106;50.926;7.080;2022-10-18T03:10:55;10.45;;;7.70;;
10132;SDS011;5106;50.926;7.080;2022-10-18T03:13:21;8.05;;;7.00;;
10132;SDS011;5106;50.926;7.080;2022-10-18T03:15:47;8.88;;;7.10;;
10132;SDS011;5106;50.926;7.080;2022-10-18T03:18:13;9.32;;;7.18;;
10132;SDS011;5106;50.926;7.080;2022-10-18T03:20:39;7.15;;;6.43;;
10132;SDS011;5106;50.926;7.080;2022-10-18T03:23:04;10.07;;;6.75;;
10132;SDS011;5106;50.926;7.080;2022-10-18T03:25:31;9.38;;;6.93;;
10132;SDS011;5106;50.926;7.080;2022-10-18T03:27:57;10.43;;;6.75;;
10132;SDS011;5106;50.926;7.080;2022-10-18T03:30:23;8.27;;;6.53;;
10132;SDS011;5106;50.926;7.080;2022-10-18T03:32:48;9.35;;;6.85;;
10132;SDS011;5106;50.926;7.080;2022-10-18T03:35:14;8.52;;;6.63;;
10132;SDS011;5106;50.926;7.080;2022-10-18T03:37:39;8.45;;;6.18;;
10132;SDS011;5106;50.926;7.080;2022-10-18T03:40:05;8.55;;;5.95;;
10132;SDS011;5106;50.926;7.080;2022-10-18T03:42:31;10.73;;;6.30;;
10132;SDS011;5106;50.926;7.080;2022-10-18T03:44:57;7.82;;;6.80;;
10132;SDS011;5106;50.926;7.080;2022-10-18T03:47:23;10.55;;;7.32;;
10132;SDS011;5106;50.926;7.080;2022-10-18T03:49:48;8.80;;;6.72;;
10132;SDS011;5106;50.926;7.080;2022-10-18T03:52:14;8.38;;;7.15;;
10132;SDS011;5106;50.926;7.080;2022-10-18T03:54:39;9.75;;;6.47;;
10132;SDS011;5106;50.926;7.080;2022-10-18T03:57:05;9.35;;;6.65;;
10132;SDS011;5106;50.926;7.080;2022-10-18T03:59:31;9.13;;;6.53;;
10132;SDS011;5106;50.926;7.080;2022-10-18T04:01:56;7.15;;;5.53;;
10132;SDS011;5106;50.926;7.080;2022-10-18T04:04:22;9.32;;;6.65;;
10132;SDS011;5106;50.926;7.080;2022-10-18T04:06:47;11.48;;;7.10;;
10132;SDS011;5106;50.926;7.080;2022-10-18T04:09:13;12.35;;;7.15;;
10132;SDS011;5106;50.926;7.080;2022-10-18T04:11:39;8.65;;;6.70;;
10132;SDS011;5106;50.926;7.080;2022-10-18T04:14:04;7.95;;;6.88;;
10132;SDS011;5106;50.926;7.080;2022-10-18T04:16:30;9.88;;;7.03;;
10132;SDS011;5106;50.926;7.080;2022-10-18T04:18:56;10.63;;;7.20;;
10132;SDS011;5106;50.926;7.080;2022-10-18T04:21:22;9.25;;;7.28;;
10132;SDS011;5106;50.926;7.080;2022-10-18T04:23:48;7.45;;;6.50;;
10132;SDS011;5106;50.926;7.080;2022-10-18T04:26:14;10.35;;;6.93;;
10132;SDS011;5106;50.926;7.080;2022-10-18T04:28:40;8.73;;;6.47;;
10132;SDS011;5106;50.926;7.080;2022-10-18T04:31:07;7.68;;;6.15;;
10132;SDS011;5106;50.926;7.080;2022-10-18T04:33:33;9.60;;;6.60;;
10132;SDS011;5106;50.926;7.080;2022-10-18T04:35:58;9.27;;;6.78;;
10132;SDS011;5106;50.926;7.080;2022-10-18T04:38:24;10.98;;;6.80;;
10132;SDS011;5106;50.926;7.080;2022-10-18T04:40:49;10.35;;;6.70;;
10132;SDS011;5106;50.926;7.080;2022-10-18T04:43:15;8.05;;;6.80;;
10132;SDS011;5106;50.926;7.080;2022-10-18T04:45:40;8.63;;;6.88;;
10132;SDS011;5106;50.926;7.080;2022-10-18T04:48:08;10.38;;;7.55;;
10132;SDS011;5106;50.926;7.080;2022-10-18T04:50:34;8.05;;;6.63;;
10132;SDS011;5106;50.926;7.080;2022-10-18T04:52:59;7.50;;;6.32;;
10132;SDS011;5106;50.926;7.080;2022-10-18T04:55:25;6.60;;;5.43;;
10132;SDS011;5106;50.926;7.080;2022-10-18T04:57:51;7.00;;;5.60;;
10132;SDS011;5106;50.926;7.080;2022-10-18T05:00:16;7.22;;;6.45;;
10132;SDS011;5106;50.926;7.080;2022-10-18T05:02:42;7.13;;;6.30;;
10132;SDS011;5106;50.926;7.080;2022-10-18T05:05:08;7.28;;;6.47;;
10132;SDS011;5106;50.926;7.080;2022-10-18T05:07:33;9.15;;;6.72;;
10132;SDS011;5106;50.926;7.080;2022-10-18T05:09:59;9.25;;;6.50;;
10132;SDS011;5106;50.926;7.080;2022-10-18T05:12:24;8.07;;;6.15;;
10132;SDS011;5106;50.926;7.080;2022-10-18T05:14:50;9.63;;;7.30;;
10132;SDS011;5106;50.926;7.080;2022-10-18T05:17:16;6.82;;;5.72;;
10132;SDS011;5106;50.926;7.080;2022-10-18T05:19:41;8.23;;;6.75;;
10132;SDS011;5106;50.926;7.080;2022-10-18T05:22:07;10.00;;;7.07;;
10132;SDS011;5106;50.926;7.080;2022-10-18T05:24:32;8.20;;;6.07;;
10132;SDS011;5106;50.926;7.080;2022-10-18T05:26:58;8.98;;;6.88;;
10132;SDS011;5106;50.926;7.080;2022-10-18T05:29:23;8.32;;;5.78;;
10132;SDS011;5106;50.926;7.080;2022-10-18T05:31:49;8.30;;;6.72;;
10132;SDS011;5106;50.926;7.080;2022-10-18T05:34:15;9.55;;;7.10;;
10132;SDS011;5106;50.926;7.080;2022-10-18T05:36:42;9.68;;;6.80;;
10132;SDS011;5106;50.926;7.080;2022-10-18T05:39:13;12.55;;;7.45;;
10132;SDS011;5106;50.926;7.080;2022-10-18T05:41:38;10.57;;;7.05;;
10132;SDS011;5106;50.926;7.080;2022-10-18T05:44:04;8.98;;;7.05;;
10132;SDS011;5106;50.926;7.080;2022-10-18T05:46:30;9.63;;;6.43;;
10132;SDS011;5106;50.926;7.080;2022-10-18T05:48:56;10.23;;;6.53;;
10132;SDS011;5106;50.926;7.080;2022-10-18T05:51:22;8.80;;;6.97;;
10132;SDS011;5106;50.926;7.080;2022-10-18T05:53:48;9.32;;;7.05;;
10132;SDS011;5106;50.926;7.080;2022-10-18T05:56:13;8.77;;;6.88;;
10132;SDS011;5106;50.926;7.080;2022-10-18T05:58:39;10.23;;;7.53;;
10132;SDS011;5106;50.926;7.080;2022-10-18T06:01:06;7.82;;;6.85;;
10132;SDS011;5106;50.926;7.080;2022-10-18T06:03:32;8.27;;;6.63;;
10132;SDS011;5106;50.926;7.080;2022-10-18T06:06:02;8.05;;;6.18;;
10132;SDS011;5106;50.926;7.080;2022-10-18T06:08:33;8.15;;;6.35;;
10132;SDS011;5106;50.926;7.080;2022-10-18T06:11:04;9.85;;;6.03;;
10132;SDS011;5106;50.926;7.080;2022-10-18T06:13:44;8.43;;;6.45;;
10132;SDS011;5106;50.926;7.080;2022-10-18T06:16:11;12.43;;;6.95;;
10132;SDS011;5106;50.926;7.080;2022-10-18T06:18:39;8.60;;;6.07;;
10132;SDS011;5106;50.926;7.080;2022-10-18T06:21:05;7.75;;;6.25;;
10132;SDS011;5106;50.926;7.080;2022-10-18T06:23:32;8.07;;;6.43;;
10132;SDS011;5106;50.926;7.080;2022-10-18T06:26:02;8.50;;;6.88;;
10132;SDS011;5106;50.926;7.080;2022-10-18T06:28:29;8.30;;;6.28;;
10132;SDS011;5106;50.926;7.080;2022-10-18T06:30:55;8.35;;;6.35;;
10132;SDS011;5106;50.926;7.080;2022-10-18T06:33:21;7.80;;;6.63;;
10132;SDS011;5106;50.926;7.080;2022-10-18T06:35:57;11.30;;;7.00;;
10132;SDS011;5106;50.926;7.080;2022-10-18T06:38:24;9.43;;;6.90;;
10132;SDS011;5106;50.926;7.080;2022-10-18T06:40:51;8.55;;;6.70;;
10132;SDS011;5106;50.926;7.080;2022-10-18T06:43:17;7.53;;;6.55;;
10132;SDS011;5106;50.926;7.080;2022-10-18T06:45:42;8.73;;;6.43;;
10132;SDS011;5106;50.926;7.080;2022-10-18T06:48:08;10.43;;;6.90;;
10132;SDS011;5106;50.926;7.080;2022-10-18T06:50:34;11.73;;;7.00;;
10132;SDS011;5106;50.926;7.080;2022-10-18T06:52:59;8.00;;;6.10;;
10132;SDS011;5106;50.926;7.080;2022-10-18T06:55:26;8.77;;;7.03;;
10132;SDS011;5106;50.926;7.080;2022-10-18T06:57:52;9.20;;;6.70;;
10132;SDS011;5106;50.926;7.080;2022-10-18T07:00:17;10.88;;;6.75;;
10132;SDS011;5106;50.926;7.080;2022-10-18T07:02:43;8.85;;;6.53;;
10132;SDS011;5106;50.926;7.080;2022-10-18T07:05:09;7.43;;;6.45;;
10132;SDS011;5106;50.926;7.080;2022-10-18T07:07:35;10.68;;;7.28;;
10132;SDS011;5106;50.926;7.080;2022-10-18T07:10:01;9.70;;;6.90;;
10132;SDS011;5106;50.926;7.080;2022-10-18T07:12:27;9.32;;;7.18;;
10132;SDS011;5106;50.926;7.080;2022-10-18T07:14:52;9.45;;;6.88;;
10132;SDS011;5106;50.926;7.080;2022-10-18T07:17:19;8.18;;;6.85;;
10132;SDS011;5106;50.926;7.080;2022-10-18T07:19:44;8.45;;;7.20;;
10132;SDS011;5106;50.926;7.080;2022-10-18T07:22:10;8.80;;;6.97;;
10132;SDS011;5106;50.926;7.080;2022-10-18T07:24:35;9.50;;;7.22;;
10132;SDS011;5106;50.926;7.080;2022-10-18T07:27:01;10.82;;;6.72;;
10132;SDS011;5106;50.926;7.080;2022-10-18T07:29:27;10.30;;;7.07;;
10132;SDS011;5106;50.926;7.080;2022-10-18T07:31:52;7.45;;;6.00;;
10132;SDS011;5106;50.926;7.080;2022-10-18T07:34:18;10.23;;;6.82;;
10132;SDS011;5106;50.926;7.080;2022-10-18T07:36:43;9.35;;;6.85;;
10132;SDS011;5106;50.926;7.080;2022-10-18T07:39:09;8.95;;;6.50;;
10132;SDS011;5106;50.926;7.080;2022-10-18T07:41:35;9.00;;;6.53;;
10132;SDS011;5106;50.926;7.080;2022-10-18T07:44:01;9.15;;;6.57;;
10132;SDS011;5106;50.926;7.080;2022-10-18T07:46:28;11.52;;;6.90;;
10132;SDS011;5106;50.926;7.080;2022-10-18T07:48:54;8.93;;;7.05;;
10132;SDS011;5106;50.926;7.080;2022-10-18T07:51:20;8.27;;;6.45;;
10132;SDS011;5106;50.926;7.080;2022-10-18T07:53:46;8.32;;;6.65;;
10132;SDS011;5106;50.926;7.080;2022-10-18T07:56:13;10.05;;;6.95;;
10132;SDS011;5106;50.926;7.080;2022-10-18T07:58:44;12.38;;;7.22;;
10132;SDS011;5106;50.926;7.080;2022-10-18T08:01:11;8.00;;;6.57;;
10132;SDS011;5106;50.926;7.080;2022-10-18T08:03:38;9.00;;;6.63;;
10132;SDS011;5106;50.926;7.080;2022-10-18T08:06:05;8.68;;;6.60;;
10132;SDS011;5106;50.926;7.080;2022-10-18T08:08:36;9.63;;;6.65;;
10132;SDS011;5106;50.926;7.080;2022-10-18T08:11:03;10.05;;;7.03;;
10132;SDS011;5106;50.926;7.080;2022-10-18T08:13:31;9.68;;;7.45;;
10132;SDS011;5106;50.926;7.080;2022-10-18T08:15:58;9.88;;;7.32;;
10132;SDS011;5106;50.926;7.080;2022-10-18T08:18:31;9.85;;;7.40;;
10132;SDS011;5106;50.926;7.080;2022-10-18T08:21:04;9.05;;;7.47;;
10132;SDS011;5106;50.926;7.080;2022-10-18T08:23:32;11.18;;;7.40;;
10132;SDS011;5106;50.926;7.080;2022-10-18T08:26:05;9.95;;;7.88;;
10132;SDS011;5106;50.926;7.080;2022-10-18T08:28:32;13.07;;;9.88;;
10132;SDS011;5106;50.926;7.080;2022-10-18T08:31:01;11.20;;;8.45;;
10132;SDS011;5106;50.926;7.080;2022-10-18T08:33:30;10.00;;;8.35;;
10132;SDS011;5106;50.926;7.080;2022-10-18T08:35:57;9.98;;;7.90;;
10132;SDS011;5106;50.926;7.080;2022-10-18T08:38:24;12.25;;;8.43;;
10132;SDS011;5106;50.926;7.080;2022-10-18T08:40:52;10.73;;;7.90;;
10132;SDS011;5106;50.926;7.080;2022-10-18T08:45:49;10.65;;;8.27;;
10132;SDS011;5106;50.926;7.080;2022-10-18T08:48:19;10.95;;;8.05;;
10132;SDS011;5106;50.926;7.080;2022-10-18T08:50:49;10.55;;;7.63;;
10132;SDS011;5106;50.926;7.080;2022-10-18T08:53:25;8.95;;;6.68;;
10132;SDS011;5106;50.926;7.080;2022-10-18T08:55:56;9.13;;;7.18;;
10132;SDS011;5106;50.926;7.080;2022-10-18T08:58:31;9.70;;;7.03;;
10132;SDS011;5106;50.926;7.080;2022-10-18T09:01:01;7.97;;;6.78;;
10132;SDS011;5106;50.926;7.080;2022-10-18T09:20:33;10.18;;;7.68;;
10132;SDS011;5106;50.926;7.080;2022-10-18T09:23:21;13.75;;;8.50;;
10132;SDS011;5106;50.926;7.080;2022-10-18T09:26:18;10.68;;;8.27;;
10132;SDS011;5106;50.926;7.080;2022-10-18T09:32:01;10.55;;;8.23;;
10132;SDS011;5106;50.926;7.080;2022-10-18T09:34:36;12.88;;;9.38;;
10132;SDS011;5106;50.926;7.080;2022-10-18T09:37:10;10.60;;;8.35;;
10132;SDS011;5106;50.926;7.080;2022-10-18T09:39:38;11.70;;;8.43;;
10132;SDS011;5106;50.926;7.080;2022-10-18T09:44:50;10.02;;;8.23;;
10132;SDS011;5106;50.926;7.080;2022-10-18T09:47:46;13.73;;;8.98;;
10132;SDS011;5106;50.926;7.080;2022-10-18T09:50:26;15.52;;;10.73;;
10132;SDS011;5106;50.926;7.080;2022-10-18T09:53:12;15.30;;;9.95;;
10132;SDS011;5106;50.926;7.080;2022-10-18T09:55:50;13.05;;;9.43;;
10132;SDS011;5106;50.926;7.080;2022-10-18T09:58:22;16.50;;;11.55;;
10132;SDS011;5106;50.926;7.080;2022-10-18T10:00:51;13.88;;;10.02;;
10132;SDS011;5106;50.926;7.080;2022-10-18T10:03:17;16.73;;;10.88;;
10132;SDS011;5106;50.926;7.080;2022-10-18T10:05:43;21.58;;;13.52;;
10132;SDS011;5106;50.926;7.080;2022-10-18T10:08:08;20.48;;;12.55;;
10132;SDS011;5106;50.926;7.080;2022-10-18T10:10:34;19.10;;;12.18;;
10132;SDS011;5106;50.926;7.080;2022-10-18T10:13:17;17.23;;;11.80;;
10132;SDS011;5106;50.926;7.080;2022-10-18T10:18:19;24.23;;;13.68;;
10132;SDS011;5106;50.926;7.080;2022-10-18T10:20:59;20.23;;;11.82;;
10132;SDS011;5106;50.926;7.080;2022-10-18T10:26:21;25.90;;;14.63;;
10132;SDS011;5106;50.926;7.080;2022-10-18T10:28:49;29.27;;;15.30;;
10132;SDS011;5106;50.926;7.080;2022-10-18T10:31:16;27.42;;;16.20;;
10132;SDS011;5106;50.926;7.080;2022-10-18T10:33:56;33.17;;;18.27;;
10132;SDS011;5106;50.926;7.080;2022-10-18T10:36:34;34.05;;;18.27;;
10132;SDS011;5106;50.926;7.080;2022-10-18T10:39:12;34.38;;;17.77;;
10132;SDS011;5106;50.926;7.080;2022-10-18T10:41:42;36.97;;;17.55;;
10132;SDS011;5106;50.926;7.080;2022-10-18T10:44:18;37.65;;;16.95;;
10132;SDS011;5106;50.926;7.080;2022-10-18T10:46:45;32.15;;;16.42;;
10132;SDS011;5106;50.926;7.080;2022-10-18T10:49:17;34.90;;;16.70;;
10132;SDS011;5106;50.926;7.080;2022-10-18T10:51:54;38.38;;;16.83;;
10132;SDS011;5106;50.926;7.080;2022-10-18T10:54:23;32.88;;;16.65;;
10132;SDS011;5106;50.926;7.080;2022-10-18T10:59:27;32.00;;;15.73;;
10132;SDS011;5106;50.926;7.080;2022-10-18T11:02:10;37.17;;;16.98;;
10132;SDS011;5106;50.926;7.080;2022-10-18T11:04:41;34.63;;;16.92;;
10132;SDS011;5106;50.926;7.080;2022-10-18T11:12:17;30.23;;;15.32;;
10132;SDS011;5106;50.926;7.080;2022-10-18T11:14:49;34.55;;;17.38;;
10132;SDS011;5106;50.926;7.080;2022-10-18T11:17:38;45.83;;;21.08;;
10132;SDS011;5106;50.926;7.080;2022-10-18T11:20:13;36.90;;;20.58;;
10132;SDS011;5106;50.926;7.080;2022-10-18T11:37:02;40.70;;;21.85;;
10132;SDS011;5106;50.926;7.080;2022-10-18T11:42:50;48.10;;;24.40;;
10132;SDS011;5106;50.926;7.080;2022-10-18T11:48:20;49.63;;;24.73;;
10132;SDS011;5106;50.926;7.080;2022-10-18T11:51:00;52.00;;;26.50;;
10132;SDS011;5106;50.926;7.080;2022-10-18T11:56:52;47.30;;;25.67;;
10132;SDS011;5106;50.926;7.080;2022-10-18T12:01:55;51.90;;;26.88;;
10132;SDS011;5106;50.926;7.080;2022-10-18T12:04:44;46.60;;;26.08;;
10132;SDS011;5106;50.926;7.080;2022-10-18T12:07:16;47.40;;;26.42;;
10132;SDS011;5106;50.926;7.080;2022-10-18T12:09:44;45.88;;;25.95;;
10132;SDS011;5106;50.926;7.080;2022-10-18T12:12:23;46.05;;;25.17;;
10132;SDS011;5106;50.926;7.080;2022-10-18T12:14:55;47.35;;;24.35;;
10132;SDS011;5106;50.926;7.080;2022-10-18T12:17:40;41.38;;;24.38;;
10132;SDS011;5106;50.926;7.080;2022-10-18T12:20:12;41.40;;;24.67;;
10132;SDS011;5106;50.926;7.080;2022-10-18T12:22:49;36.15;;;22.63;;
10132;SDS011;5106;50.926;7.080;2022-10-18T12:25:23;38.10;;;23.00;;
10132;SDS011;5106;50.926;7.080;2022-10-18T12:33:12;45.47;;;26.00;;
10132;SDS011;5106;50.926;7.080;2022-10-18T12:35:48;39.72;;;25.63;;
10132;SDS011;5106;50.926;7.080;2022-10-18T12:38:24;41.13;;;24.70;;
10132;SDS011;5106;50.926;7.080;2022-10-18T12:40:57;42.17;;;25.42;;
10132;SDS011;5106;50.926;7.080;2022-10-18T12:43:24;39.78;;;26.83;;
10132;SDS011;5106;50.926;7.080;2022-10-18T12:45:56;40.22;;;26.85;;
10132;SDS011;5106;50.926;7.080;2022-10-18T12:51:17;43.80;;;28.25;;
10132;SDS011;5106;50.926;7.080;2022-10-18T12:53:44;45.45;;;29.30;;
10132;SDS011;5106;50.926;7.080;2022-10-18T13:09:22;45.90;;;31.30;;
10132;SDS011;5106;50.926;7.080;2022-10-18T13:11:49;45.30;;;32.45;;
10132;SDS011;5106;50.926;7.080;2022-10-18T13:17:01;47.05;;;32.58;;
10132;SDS011;5106;50.926;7.080;2022-10-18T13:19:58;46.03;;;31.00;;
10132;SDS011;5106;50.926;7.080;2022-10-18T13:36:59;51.63;;;34.65;;
10132;SDS011;5106;50.926;7.080;2022-10-18T13:39:27;54.28;;;35.63;;
10132;SDS011;5106;50.926;7.080;2022-10-18T13:47:09;65.88;;;39.55;;
10132;SDS011;5106;50.926;7.080;2022-10-18T13:49:57;70.32;;;39.63;;
10132;SDS011;5106;50.926;7.080;2022-10-18T14:06:37;56.85;;;31.00;;
10132;SDS011;5106;50.926;7.080;2022-10-18T14:09:15;48.25;;;29.33;;
10132;SDS011;5106;50.926;7.080;2022-10-18T14:12:49;47.35;;;28.25;;
10132;SDS011;5106;50.926;7.080;2022-10-18T14:14:56;47.20;;;28.55;;
10132;SDS011;5106;50.926;7.080;2022-10-18T14:20:14;46.35;;;27.90;;
10132;SDS011;5106;50.926;7.080;2022-10-18T14:25:25;40.75;;;25.25;;
10132;SDS011;5106;50.926;7.080;2022-10-18T14:28:13;41.00;;;24.85;;
10132;SDS011;5106;50.926;7.080;2022-10-18T14:33:23;37.72;;;23.63;;
10132;SDS011;5106;50.926;7.080;2022-10-18T14:36:11;35.53;;;21.67;;
10132;SDS011;5106;50.926;7.080;2022-10-18T14:38:47;37.10;;;22.05;;
10132;SDS011;5106;50.926;7.080;2022-10-18T14:41:22;32.35;;;21.02;;
10132;SDS011;5106;50.926;7.080;2022-10-18T14:43:48;34.42;;;22.15;;
10132;SDS011;5106;50.926;7.080;2022-10-18T14:46:24;33.72;;;21.55;;
10132;SDS011;5106;50.926;7.080;2022-10-18T14:48:52;30.92;;;20.33;;
10132;SDS011;5106;50.926;7.080;2022-10-18T14:51:20;26.77;;;19.08;;
10132;SDS011;5106;50.926;7.080;2022-10-18T14:53:45;26.80;;;18.02;;
10132;SDS011;5106;50.926;7.080;2022-10-18T14:56:20;28.67;;;18.30;;
10132;SDS011;5106;50.926;7.080;2022-10-18T14:59:01;26.42;;;16.08;;
10132;SDS011;5106;50.926;7.080;2022-10-18T15:01:29;29.15;;;18.20;;
10132;SDS011;5106;50.926;7.080;2022-10-18T15:03:56;27.88;;;16.90;;
10132;SDS011;5106;50.926;7.080;2022-10-18T15:06:24;24.52;;;16.27;;
10132;SDS011;5106;50.926;7.080;2022-10-18T15:08:52;22.15;;;16.02;;
10132;SDS011;5106;50.926;7.080;2022-10-18T15:11:20;26.15;;;16.48;;
10132;SDS011;5106;50.926;7.080;2022-10-18T15:13:56;26.33;;;14.10;;
10132;SDS011;5106;50.926;7.080;2022-10-18T15:16:26;22.83;;;13.68;;
10132;SDS011;5106;50.926;7.080;2022-10-18T15:21:49;19.77;;;12.25;;
10132;SDS011;5106;50.926;7.080;2022-10-18T15:26:51;16.42;;;11.00;;
10132;SDS011;5106;50.926;7.080;2022-10-18T15:29:20;17.27;;;11.65;;
10132;SDS011;5106;50.926;7.080;2022-10-18T15:31:48;15.20;;;10.48;;
10132;SDS011;5106;50.926;7.080;2022-10-18T15:36:45;14.77;;;9.48;;
10132;SDS011;5106;50.926;7.080;2022-10-18T15:41:42;17.73;;;10.82;;
10132;SDS011;5106;50.926;7.080;2022-10-18T15:44:34;17.35;;;9.30;;
10132;SDS011;5106;50.926;7.080;2022-10-18T15:54:58;12.50;;;8.27;;
10132;SDS011;5106;50.926;7.080;2022-10-18T15:57:25;12.68;;;8.52;;
10132;SDS011;5106;50.926;7.080;2022-10-18T15:59:55;16.75;;;8.52;;
10132;SDS011;5106;50.926;7.080;2022-10-18T16:02:25;13.57;;;8.93;;
10132;SDS011;5106;50.926;7.080;2022-10-18T16:04:52;12.52;;;8.00;;
10132;SDS011;5106;50.926;7.080;2022-10-18T16:07:17;11.65;;;8.07;;
10132;SDS011;5106;50.926;7.080;2022-10-18T16:09:43;11.63;;;7.38;;
10132;SDS011;5106;50.926;7.080;2022-10-18T16:12:09;15.18;;;7.65;;
10132;SDS011;5106;50.926;7.080;2022-10-18T16:14:34;10.52;;;7.07;;
10132;SDS011;5106;50.926;7.080;2022-10-18T16:17:01;9.07;;;7.05;;
10132;SDS011;5106;50.926;7.080;2022-10-18T16:19:28;12.48;;;7.35;;
10132;SDS011;5106;50.926;7.080;2022-10-18T16:21:56;10.30;;;6.65;;
10132;SDS011;5106;50.926;7.080;2022-10-18T16:24:22;10.10;;;6.40;;
10132;SDS011;5106;50.926;7.080;2022-10-18T16:26:48;9.10;;;6.63;;
10132;SDS011;5106;50.926;7.080;2022-10-18T16:29:18;9.57;;;6.22;;
10132;SDS011;5106;50.926;7.080;2022-10-18T16:31:48;11.30;;;6.90;;
10132;SDS011;5106;50.926;7.080;2022-10-18T16:34:16;11.77;;;6.55;;
10132;SDS011;5106;50.926;7.080;2022-10-18T16:36:42;8.60;;;6.18;;
10132;SDS011;5106;50.926;7.080;2022-10-18T16:39:15;13.52;;;6.15;;
10132;SDS011;5106;50.926;7.080;2022-10-18T16:41:42;11.05;;;6.85;;
10132;SDS011;5106;50.926;7.080;2022-10-18T16:44:09;8.40;;;6.05;;
10132;SDS011;5106;50.926;7.080;2022-10-18T16:46:35;13.98;;;6.53;;
10132;SDS011;5106;50.926;7.080;2022-10-18T16:49:01;15.70;;;6.30;;
10132;SDS011;5106;50.926;7.080;2022-10-18T16:51:28;11.00;;;6.40;;
10132;SDS011;5106;50.926;7.080;2022-10-18T16:53:53;10.73;;;6.10;;
10132;SDS011;5106;50.926;7.080;2022-10-18T16:56:20;12.20;;;6.63;;
10132;SDS011;5106;50.926;7.080;2022-10-18T16:58:49;8.27;;;6.18;;
10132;SDS011;5106;50.926;7.080;2022-10-18T17:01:16;8.88;;;6.35;;
10132;SDS011;5106;50.926;7.080;2022-10-18T17:03:44;12.57;;;6.78;;
10132;SDS011;5106;50.926;7.080;2022-10-18T17:06:18;13.45;;;6.75;;
10132;SDS011;5106;50.926;7.080;2022-10-18T17:08:45;8.82;;;6.70;;
10132;SDS011;5106;50.926;7.080;2022-10-18T17:11:12;10.20;;;6.53;;
10132;SDS011;5106;50.926;7.080;2022-10-18T17:13:39;9.77;;;6.60;;
10132;SDS011;5106;50.926;7.080;2022-10-18T17:16:05;12.30;;;7.05;;
10132;SDS011;5106;50.926;7.080;2022-10-18T17:18:31;11.32;;;6.57;;
10132;SDS011;5106;50.926;7.080;2022-10-18T17:20:58;9.25;;;6.47;;
10132;SDS011;5106;50.926;7.080;2022-10-18T17:23:28;13.55;;;7.10;;
10132;SDS011;5106;50.926;7.080;2022-10-18T17:25:54;9.93;;;6.75;;
10132;SDS011;5106;50.926;7.080;2022-10-18T17:28:20;9.75;;;6.57;;
10132;SDS011;5106;50.926;7.080;2022-10-18T17:30:45;12.77;;;6.47;;
10132;SDS011;5106;50.926;7.080;2022-10-18T17:33:12;10.27;;;6.60;;
10132;SDS011;5106;50.926;7.080;2022-10-18T17:35:38;12.57;;;6.35;;
10132;SDS011;5106;50.926;7.080;2022-10-18T17:38:05;11.80;;;5.80;;
10132;SDS011;5106;50.926;7.080;2022-10-18T17:40:31;8.65;;;5.85;;
10132;SDS011;5106;50.926;7.080;2022-10-18T17:42:57;9.70;;;6.25;;
10132;SDS011;5106;50.926;7.080;2022-10-18T17:45:23;11.57;;;6.55;;
10132;SDS011;5106;50.926;7.080;2022-10-18T17:47:49;11.60;;;6.70;;
10132;SDS011;5106;50.926;7.080;2022-10-18T17:50:14;10.93;;;6.90;;